createdAt,value
2016-05-09T00:00:47.215Z,0
2016-05-09T00:01:47.218Z,0
2016-05-09T00:02:47.222Z,0
2016-05-09T00:03:47.224Z,0
2016-05-09T00:04:47.055Z,0
2016-05-09T00:05:47.370Z,0
2016-05-09T00:06:47.373Z,0
2016-05-09T00:07:47.376Z,0
2016-05-09T00:08:47.207Z,0
2016-05-09T00:09:47.225Z,0
2016-05-09T00:10:47.384Z,0
2016-05-09T00:11:47.370Z,0
2016-05-09T00:12:47.373Z,0
2016-05-09T00:13:48.001Z,0
2016-05-09T00:14:47.379Z,0
2016-05-09T00:15:47.397Z,0
2016-05-09T00:16:47.244Z,0
2016-05-09T00:17:47.214Z,0
2016-05-09T00:18:47.389Z,0
2016-05-09T00:19:47.392Z,0
2016-05-09T00:20:47.239Z,0
2016-05-09T00:21:47.226Z,0
2016-05-09T00:22:47.400Z,0
2016-05-09T00:23:47.403Z,0
2016-05-09T00:24:47.390Z,0
2016-05-09T00:25:47.236Z,0
2016-05-09T00:26:47.379Z,0
2016-05-09T00:27:47.399Z,0
2016-05-09T00:28:47.760Z,0
2016-05-09T00:29:47.388Z,0
2016-05-09T00:30:47.391Z,0
2016-05-09T00:31:47.237Z,0
2016-05-09T00:32:47.427Z,0
2016-05-09T00:33:47.243Z,0
2016-05-09T00:34:47.401Z,0
2016-05-09T00:35:47.232Z,0
2016-05-09T00:36:47.407Z,0
2016-05-09T00:37:47.268Z,0
2016-05-09T00:38:47.240Z,0
2016-05-09T00:39:47.118Z,0
2016-05-09T00:40:47.402Z,0
2016-05-09T00:41:47.389Z,0
2016-05-09T00:42:47.251Z,0
2016-05-09T00:43:47.817Z,0
2016-05-09T00:44:47.413Z,0
2016-05-09T00:45:47.649Z,0
2016-05-09T00:46:47.418Z,0
2016-05-09T00:47:47.420Z,0
2016-05-09T00:48:47.408Z,0
2016-05-09T00:49:47.410Z,0
2016-05-09T00:50:47.414Z,0
2016-05-09T00:51:47.416Z,0
2016-05-09T00:52:47.419Z,0
2016-05-09T00:53:47.124Z,0
2016-05-09T00:54:47.424Z,0
2016-05-09T00:55:47.255Z,0
2016-05-09T00:56:47.413Z,0
2016-05-09T00:57:47.416Z,0
2016-05-09T00:58:47.794Z,0
2016-05-09T00:59:47.438Z,0
2016-05-09T01:00:47.440Z,0
2016-05-09T01:01:47.427Z,0
2016-05-09T01:02:47.446Z,0
2016-05-09T01:03:47.432Z,0
2016-05-09T01:04:47.435Z,0
2016-05-09T01:05:47.438Z,0
2016-05-09T01:06:47.440Z,0
2016-05-09T01:07:47.428Z,0
2016-05-09T01:08:47.445Z,0
2016-05-09T01:09:47.434Z,0
2016-05-09T01:10:47.280Z,0
2016-05-09T01:11:47.282Z,0
2016-05-09T01:12:47.128Z,0
2016-05-09T01:13:47.537Z,0
2016-05-09T01:14:47.289Z,0
2016-05-09T01:15:47.450Z,0
2016-05-09T01:16:47.437Z,0
2016-05-09T01:17:47.455Z,0
2016-05-09T01:18:47.458Z,0
2016-05-09T01:19:47.319Z,0
2016-05-09T01:20:47.447Z,0
2016-05-09T01:21:47.449Z,0
2016-05-09T01:22:47.453Z,0
2016-05-09T01:23:47.283Z,0
2016-05-09T01:24:47.442Z,0
2016-05-09T01:25:47.304Z,0
2016-05-09T01:26:47.463Z,0
2016-05-09T01:27:47.450Z,0
2016-05-09T01:28:47.188Z,0
2016-05-09T01:29:47.440Z,0
2016-05-09T01:30:47.458Z,0
2016-05-09T01:31:47.476Z,0
2016-05-09T01:32:47.307Z,0
2016-05-09T01:33:47.451Z,0
2016-05-09T01:34:47.454Z,0
2016-05-09T01:35:47.471Z,0
2016-05-09T01:36:47.459Z,0
2016-05-09T01:37:47.461Z,0
2016-05-09T01:38:47.465Z,0
2016-05-09T01:39:47.155Z,0
2016-05-09T01:40:47.470Z,0
2016-05-09T01:41:47.301Z,0
2016-05-09T01:42:47.475Z,0
2016-05-09T01:43:47.274Z,0
2016-05-09T01:44:47.309Z,0
2016-05-09T01:45:47.467Z,0
2016-05-09T01:46:47.470Z,0
2016-05-09T01:47:47.301Z,0
2016-05-09T01:48:47.319Z,0
2016-05-09T01:49:47.337Z,0
2016-05-09T01:50:47.496Z,0
2016-05-09T01:51:47.468Z,0
2016-05-09T01:52:47.470Z,0
2016-05-09T01:53:47.317Z,0
2016-05-09T01:54:47.335Z,0
2016-05-09T01:55:47.478Z,0
2016-05-09T01:56:47.481Z,0
2016-05-09T01:57:47.484Z,0
2016-05-09T01:58:47.408Z,0
2016-05-09T01:59:47.505Z,0
2016-05-09T02:00:47.476Z,0
2016-05-09T02:01:47.323Z,0
2016-05-09T02:02:47.497Z,0
2016-05-09T02:03:47.485Z,0
2016-05-09T02:04:47.488Z,0
2016-05-09T02:05:47.490Z,0
2016-05-09T02:06:47.492Z,0
2016-05-09T02:07:47.510Z,0
2016-05-09T02:08:47.499Z,0
2016-05-09T02:09:47.501Z,0
2016-05-09T02:10:47.488Z,0
2016-05-09T02:11:47.475Z,0
2016-05-09T02:12:47.353Z,0
2016-05-09T02:13:49.089Z,0
2016-05-09T02:14:47.343Z,0
2016-05-09T02:15:47.501Z,0
2016-05-09T02:16:47.504Z,0
2016-05-09T02:17:47.506Z,0
2016-05-09T02:18:47.337Z,0
2016-05-09T02:19:47.496Z,0
2016-05-09T02:20:47.499Z,0
2016-05-09T02:21:47.345Z,0
2016-05-09T02:22:47.505Z,0
2016-05-09T02:23:47.482Z,0
2016-05-09T02:24:47.329Z,0
2016-05-09T02:25:47.346Z,0
2016-05-09T02:26:47.491Z,0
2016-05-09T02:27:47.525Z,0
2016-05-09T02:28:47.355Z,0
2016-05-09T02:29:47.357Z,0
2016-05-09T02:30:47.345Z,0
2016-05-09T02:31:47.504Z,0
2016-05-09T02:32:47.351Z,0
2016-05-09T02:33:47.213Z,0
2016-05-09T02:34:47.356Z,0
2016-05-09T02:35:47.515Z,0
2016-05-09T02:36:47.392Z,0
2016-05-09T02:37:47.364Z,0
2016-05-09T02:38:47.351Z,0
2016-05-09T02:39:47.370Z,0
2016-05-09T02:40:47.512Z,0
2016-05-09T02:41:47.375Z,0
2016-05-09T02:42:47.362Z,0
2016-05-09T02:43:47.505Z,0
2016-05-09T02:44:47.367Z,0
2016-05-09T02:45:47.511Z,0
2016-05-09T02:46:47.513Z,0
2016-05-09T02:47:47.203Z,0
2016-05-09T02:48:47.519Z,0
2016-05-09T02:49:47.366Z,0
2016-05-09T02:50:47.524Z,0
2016-05-09T02:51:47.371Z,0
2016-05-09T02:52:47.529Z,0
2016-05-09T02:53:47.516Z,0
2016-05-09T02:54:47.534Z,0
2016-05-09T02:55:47.538Z,0
2016-05-09T02:56:47.524Z,0
2016-05-09T02:57:47.543Z,0
2016-05-09T02:58:47.654Z,0
2016-05-09T02:59:47.080Z,0
2016-05-09T03:00:47.520Z,0
2016-05-09T03:01:47.382Z,0
2016-05-09T03:02:47.525Z,0
2016-05-09T03:03:47.371Z,0
2016-05-09T03:04:47.530Z,0
2016-05-09T03:05:47.220Z,0
2016-05-09T03:06:47.536Z,0
2016-05-09T03:07:47.539Z,0
2016-05-09T03:08:47.541Z,0
2016-05-09T03:09:47.529Z,0
2016-05-09T03:10:47.375Z,0
2016-05-09T03:11:47.220Z,0
2016-05-09T03:12:47.536Z,0
2016-05-09T03:13:47.383Z,0
2016-05-09T03:14:47.558Z,0
2016-05-09T03:15:47.528Z,0
2016-05-09T03:16:47.547Z,0
2016-05-09T03:17:47.550Z,0
2016-05-09T03:18:47.536Z,0
2016-05-09T03:19:47.539Z,0
2016-05-09T03:20:47.542Z,0
2016-05-09T03:21:47.530Z,0
2016-05-09T03:22:47.407Z,0
2016-05-09T03:23:47.535Z,0
2016-05-09T03:24:47.380Z,0
2016-05-09T03:25:47.540Z,0
2016-05-09T03:26:47.527Z,0
2016-05-09T03:27:47.546Z,0
2016-05-09T03:28:49.533Z,0
2016-05-09T03:29:47.394Z,0
2016-05-09T03:30:47.554Z,0
2016-05-09T03:31:47.556Z,0
2016-05-09T03:32:47.402Z,0
2016-05-09T03:33:47.545Z,0
2016-05-09T03:34:47.237Z,0
2016-05-09T03:35:47.535Z,0
2016-05-09T03:36:47.538Z,0
2016-05-09T03:37:47.540Z,0
2016-05-09T03:38:47.544Z,0
2016-05-09T03:39:47.562Z,0
2016-05-09T03:40:47.393Z,0
2016-05-09T03:41:47.395Z,0
2016-05-09T03:42:47.554Z,0
2016-05-09T03:43:47.400Z,0
2016-05-09T03:44:47.248Z,0
2016-05-09T03:45:47.406Z,0
2016-05-09T03:46:47.409Z,5
2016-05-09T03:47:47.396Z,5
2016-05-09T03:48:47.570Z,5
2016-05-09T03:49:48.855Z,5
2016-05-09T03:50:47.263Z,5
2016-05-09T03:51:47.485Z,5
2016-05-09T03:52:47.550Z,5
2016-05-09T03:53:47.568Z,5
2016-05-09T03:54:47.399Z,5
2016-05-09T03:55:47.558Z,10
2016-05-09T03:56:47.561Z,10
2016-05-09T03:57:47.563Z,10
2016-05-09T03:58:48.394Z,10
2016-05-09T03:59:47.553Z,10
2016-05-09T04:00:47.260Z,10
2016-05-09T04:01:47.574Z,15
2016-05-09T04:02:47.577Z,15
2016-05-09T04:03:47.579Z,15
2016-05-09T04:04:47.567Z,15
2016-05-09T04:05:47.553Z,20
2016-05-09T04:06:47.416Z,20
2016-05-09T04:07:47.434Z,20
2016-05-09T04:08:47.562Z,25
2016-05-09T04:09:47.595Z,25
2016-05-09T04:10:47.567Z,25
2016-05-09T04:11:47.569Z,30
2016-05-09T04:12:47.276Z,30
2016-05-09T04:13:47.435Z,40
2016-05-09T04:14:47.562Z,50
2016-05-09T04:15:47.580Z,60
2016-05-09T04:16:47.583Z,65
2016-05-09T04:17:47.555Z,65
2016-05-09T04:18:47.417Z,75
2016-05-09T04:19:47.592Z,75
2016-05-09T04:20:47.563Z,80
2016-05-09T04:21:47.580Z,80
2016-05-09T04:22:47.583Z,90
2016-05-09T04:23:47.571Z,95
2016-05-09T04:24:47.277Z,100
2016-05-09T04:25:47.592Z,105
2016-05-09T04:26:47.594Z,110
2016-05-09T04:27:47.441Z,120
2016-05-09T04:28:47.428Z,120
2016-05-09T04:29:47.587Z,125
2016-05-09T04:30:47.574Z,125
2016-05-09T04:31:47.608Z,130
2016-05-09T04:32:47.595Z,135
2016-05-09T04:33:47.598Z,135
2016-05-09T04:34:47.444Z,135
2016-05-09T04:35:47.603Z,140
2016-05-09T04:36:47.434Z,140
2016-05-09T04:37:47.593Z,130
2016-05-09T04:38:47.440Z,140
2016-05-09T04:39:47.614Z,100
2016-05-09T04:40:47.445Z,80
2016-05-09T04:41:47.447Z,85
2016-05-09T04:42:47.434Z,85
2016-05-09T04:43:47.453Z,95
2016-05-09T04:44:47.612Z,125
2016-05-09T04:45:47.615Z,135
2016-05-09T04:46:47.461Z,110
2016-05-09T04:47:47.603Z,105
2016-05-09T04:48:47.606Z,105
2016-05-09T04:49:47.470Z,125
2016-05-09T04:50:47.299Z,200
2016-05-09T04:51:47.303Z,230
2016-05-09T04:52:47.633Z,230
2016-05-09T04:53:47.464Z,235
2016-05-09T04:54:47.466Z,245
2016-05-09T04:55:47.626Z,250
2016-05-09T04:56:47.628Z,260
2016-05-09T04:57:47.631Z,265
2016-05-09T04:58:47.727Z,270
2016-05-09T04:59:47.715Z,275
2016-05-09T05:00:47.638Z,275
2016-05-09T05:01:47.658Z,285
2016-05-09T05:02:47.488Z,295
2016-05-09T05:03:47.491Z,305
2016-05-09T05:04:47.493Z,315
2016-05-09T05:05:47.512Z,320
2016-05-09T05:06:47.640Z,310
2016-05-09T05:07:47.658Z,220
2016-05-09T05:08:47.520Z,190
2016-05-09T05:09:47.663Z,265
2016-05-09T05:10:47.666Z,285
2016-05-09T05:11:47.668Z,315
2016-05-09T05:12:47.687Z,355
2016-05-09T05:13:47.534Z,390
2016-05-09T05:14:47.676Z,400
2016-05-09T05:15:47.695Z,400
2016-05-09T05:16:47.697Z,395
2016-05-09T05:17:47.701Z,400
2016-05-09T05:18:47.719Z,415
2016-05-09T05:19:47.706Z,420
2016-05-09T05:20:47.708Z,395
2016-05-09T05:21:47.570Z,370
2016-05-09T05:22:47.729Z,380
2016-05-09T05:23:47.717Z,390
2016-05-09T05:24:47.720Z,355
2016-05-09T05:25:47.722Z,315
2016-05-09T05:26:47.583Z,360
2016-05-09T05:27:47.571Z,275
2016-05-09T05:28:49.261Z,280
2016-05-09T05:29:47.608Z,280
2016-05-09T05:30:47.595Z,320
2016-05-09T05:31:47.754Z,330
2016-05-09T05:32:47.615Z,330
2016-05-09T05:33:47.602Z,320
2016-05-09T05:34:47.605Z,310
2016-05-09T05:35:47.452Z,310
2016-05-09T05:36:47.471Z,325
2016-05-09T05:37:47.629Z,330
2016-05-09T05:38:47.788Z,335
2016-05-09T05:39:47.790Z,315
2016-05-09T05:40:47.793Z,305
2016-05-09T05:41:47.484Z,285
2016-05-09T05:42:47.799Z,255
2016-05-09T05:43:47.848Z,215
2016-05-09T05:44:47.664Z,200
2016-05-09T05:45:47.807Z,190
2016-05-09T05:46:47.826Z,175
2016-05-09T05:47:47.828Z,160
2016-05-09T05:48:47.675Z,160
2016-05-09T05:49:47.849Z,165
2016-05-09T05:50:47.711Z,165
2016-05-09T05:51:47.854Z,160
2016-05-09T05:52:47.841Z,165
2016-05-09T05:53:47.876Z,165
2016-05-09T05:54:47.706Z,165
2016-05-09T05:55:47.709Z,170
2016-05-09T05:56:47.883Z,170
2016-05-09T05:57:47.886Z,170
2016-05-09T05:58:47.888Z,175
2016-05-09T05:59:47.735Z,175
2016-05-09T06:00:47.781Z,170
2016-05-09T06:01:47.984Z,170
2016-05-09T06:02:47.749Z,170
2016-05-09T06:03:47.937Z,170
2016-05-09T06:04:48.140Z,180
2016-05-09T06:05:48.158Z,185
2016-05-09T06:06:48.005Z,185
2016-05-09T06:07:48.053Z,190
2016-05-09T06:08:48.213Z,200
2016-05-09T06:09:48.091Z,220
2016-05-09T06:10:48.240Z,220
2016-05-09T06:11:48.107Z,215
2016-05-09T06:12:48.257Z,220
2016-05-09T06:13:48.146Z,220
2016-05-09T06:14:48.310Z,215
2016-05-09T06:15:48.299Z,205
2016-05-09T06:16:48.303Z,205
2016-05-09T06:17:48.324Z,200
2016-05-09T06:18:48.313Z,205
2016-05-09T06:19:48.177Z,210
2016-05-09T06:20:48.336Z,215
2016-05-09T06:21:48.324Z,220
2016-05-09T06:22:48.327Z,220
2016-05-09T06:23:48.393Z,220
2016-05-09T06:24:48.334Z,225
2016-05-09T06:25:48.212Z,230
2016-05-09T06:26:48.372Z,235
2016-05-09T06:27:48.062Z,250
2016-05-09T06:28:48.205Z,240
2016-05-09T06:29:48.208Z,245
2016-05-09T06:30:48.226Z,240
2016-05-09T06:31:48.213Z,245
2016-05-09T06:32:48.074Z,265
2016-05-09T06:33:48.218Z,280
2016-05-09T06:34:48.080Z,310
2016-05-09T06:35:48.396Z,345
2016-05-09T06:36:48.070Z,360
2016-05-09T06:37:48.401Z,415
2016-05-09T06:38:48.404Z,555
2016-05-09T06:39:48.407Z,600
2016-05-09T06:40:48.252Z,715
2016-05-09T06:41:51.333Z,690
2016-05-09T06:42:48.258Z,695
2016-05-09T06:43:49.104Z,750
2016-05-09T06:44:48.296Z,540
2016-05-09T06:45:48.282Z,545
2016-05-09T06:46:48.285Z,485
2016-05-09T06:47:48.443Z,425
2016-05-09T06:48:48.446Z,370
2016-05-09T06:49:48.449Z,370
2016-05-09T06:50:48.482Z,390
2016-05-09T06:51:48.314Z,400
2016-05-09T06:52:48.472Z,425
2016-05-09T06:53:48.319Z,445
2016-05-09T06:54:48.337Z,430
2016-05-09T06:55:48.496Z,445
2016-05-09T06:56:48.499Z,440
2016-05-09T06:57:48.330Z,460
2016-05-09T06:58:48.364Z,450
2016-05-09T06:59:48.226Z,455
2016-05-09T07:00:48.353Z,435
2016-05-09T07:01:48.387Z,415
2016-05-09T07:02:48.374Z,450
2016-05-09T07:03:48.377Z,455
2016-05-09T07:04:48.380Z,435
2016-05-09T07:05:48.241Z,415
2016-05-09T07:06:48.245Z,400
2016-05-09T07:07:48.607Z,400
2016-05-09T07:08:48.578Z,405
2016-05-09T07:09:48.408Z,420
2016-05-09T07:10:48.411Z,420
2016-05-09T07:11:48.602Z,410
2016-05-09T07:12:48.589Z,390
2016-05-09T07:13:48.936Z,390
2016-05-09T07:14:48.454Z,395
2016-05-09T07:15:48.597Z,400
2016-05-09T07:16:48.615Z,380
2016-05-09T07:17:48.305Z,380
2016-05-09T07:18:48.668Z,380
2016-05-09T07:19:48.623Z,360
2016-05-09T07:20:48.470Z,350
2016-05-09T07:21:48.488Z,360
2016-05-09T07:22:48.475Z,370
2016-05-09T07:23:48.493Z,380
2016-05-09T07:24:48.496Z,390
2016-05-09T07:25:48.671Z,435
2016-05-09T07:26:48.517Z,465
2016-05-09T07:27:48.676Z,465
2016-05-09T07:28:48.695Z,465
2016-05-09T07:29:48.542Z,500
2016-05-09T07:30:48.700Z,530
2016-05-09T07:31:48.561Z,495
2016-05-09T07:32:48.706Z,500
2016-05-09T07:33:48.552Z,475
2016-05-09T07:34:48.414Z,455
2016-05-09T07:35:48.589Z,410
2016-05-09T07:36:48.731Z,405
2016-05-09T07:37:48.734Z,420
2016-05-09T07:38:48.737Z,440
2016-05-09T07:39:48.739Z,420
2016-05-09T07:40:48.774Z,455
2016-05-09T07:41:48.761Z,485
2016-05-09T07:42:48.466Z,475
2016-05-09T07:43:48.641Z,415
2016-05-09T07:44:48.472Z,355
2016-05-09T07:45:48.787Z,315
2016-05-09T07:46:48.649Z,305
2016-05-09T07:47:48.636Z,295
2016-05-09T07:48:48.638Z,295
2016-05-09T07:49:48.814Z,300
2016-05-09T07:50:48.832Z,300
2016-05-09T07:51:48.668Z,330
2016-05-09T07:52:48.843Z,370
2016-05-09T07:53:48.845Z,425
2016-05-09T07:54:48.862Z,460
2016-05-09T07:55:48.860Z,480
2016-05-09T07:56:48.863Z,505
2016-05-09T07:57:48.880Z,535
2016-05-09T07:58:49.275Z,550
2016-05-09T07:59:48.871Z,720
2016-05-09T08:00:48.873Z,980
2016-05-09T08:01:48.891Z,915
2016-05-09T08:02:48.722Z,780
2016-05-09T08:03:49.021Z,665
2016-05-09T08:04:53.821Z,640
2016-05-09T08:06:28.340Z,600
2016-05-09T08:07:00.326Z,630
2016-05-09T08:08:00.376Z,625
2016-05-09T08:09:03.379Z,540
2016-05-09T08:10:14.898Z,635
2016-05-09T08:10:48.807Z,570
2016-05-09T08:12:04.918Z,755
2016-05-09T08:12:48.968Z,660
2016-05-09T08:13:49.189Z,720
2016-05-09T08:14:48.973Z,665
2016-05-09T08:15:48.648Z,470
2016-05-09T08:16:48.964Z,720
2016-05-09T08:17:48.967Z,725
2016-05-09T08:18:49.000Z,445
2016-05-09T08:19:48.861Z,395
2016-05-09T08:20:48.865Z,465
2016-05-09T08:21:48.852Z,425
2016-05-09T08:22:48.900Z,360
2016-05-09T08:23:49.029Z,360
2016-05-09T08:24:49.032Z,355
2016-05-09T08:25:49.050Z,365
2016-05-09T08:26:48.912Z,365
2016-05-09T08:27:49.055Z,360
2016-05-09T08:28:48.761Z,385
2016-05-09T08:29:49.061Z,435
2016-05-09T08:30:49.079Z,410
2016-05-09T08:31:49.082Z,500
2016-05-09T08:32:49.085Z,590
2016-05-09T08:33:48.930Z,530
2016-05-09T08:34:49.121Z,465
2016-05-09T08:35:49.124Z,445
2016-05-09T08:36:49.111Z,545
2016-05-09T08:37:49.113Z,500
2016-05-09T08:38:49.147Z,530
2016-05-09T08:39:49.134Z,590
2016-05-09T08:40:49.138Z,575
2016-05-09T08:41:49.156Z,685
2016-05-09T08:42:49.159Z,720
2016-05-09T08:43:49.817Z,700
2016-05-09T08:44:49.007Z,715
2016-05-09T08:45:49.167Z,655
2016-05-09T08:46:49.200Z,645
2016-05-09T08:47:49.187Z,550
2016-05-09T08:48:49.050Z,560
2016-05-09T08:49:49.223Z,565
2016-05-09T08:50:49.211Z,460
2016-05-09T08:51:49.214Z,370
2016-05-09T08:52:49.092Z,355
2016-05-09T08:53:49.234Z,345
2016-05-09T08:54:49.081Z,340
2016-05-09T08:55:48.928Z,330
2016-05-09T08:56:49.086Z,335
2016-05-09T08:57:49.261Z,335
2016-05-09T08:58:49.123Z,330
2016-05-09T08:59:49.141Z,335
2016-05-09T09:00:48.957Z,330
2016-05-09T09:01:48.991Z,325
2016-05-09T09:02:49.008Z,320
2016-05-09T09:03:49.308Z,315
2016-05-09T09:04:49.171Z,315
2016-05-09T09:05:49.157Z,310
2016-05-09T09:06:49.160Z,315
2016-05-09T09:07:49.334Z,310
2016-05-09T09:08:49.369Z,310
2016-05-09T09:09:49.184Z,310
2016-05-09T09:10:49.201Z,310
2016-05-09T09:11:49.204Z,305
2016-05-09T09:12:49.068Z,310
2016-05-09T09:13:49.601Z,300
2016-05-09T09:14:49.245Z,300
2016-05-09T09:15:49.388Z,295
2016-05-09T09:16:49.250Z,295
2016-05-09T09:17:49.393Z,290
2016-05-09T09:18:49.396Z,290
2016-05-09T09:19:49.258Z,285
2016-05-09T09:20:49.245Z,285
2016-05-09T09:21:49.403Z,285
2016-05-09T09:22:49.437Z,280
2016-05-09T09:23:49.284Z,285
2016-05-09T09:24:49.443Z,280
2016-05-09T09:25:49.445Z,280
2016-05-09T09:26:49.308Z,275
2016-05-09T09:27:49.467Z,275
2016-05-09T09:28:49.547Z,270
2016-05-09T09:29:49.175Z,265
2016-05-09T09:30:49.318Z,265
2016-05-09T09:31:49.337Z,260
2016-05-09T09:32:49.480Z,265
2016-05-09T09:33:49.499Z,260
2016-05-09T09:34:49.517Z,260
2016-05-09T09:35:49.519Z,260
2016-05-09T09:36:49.382Z,265
2016-05-09T09:37:49.557Z,260
2016-05-09T09:38:49.387Z,260
2016-05-09T09:39:49.374Z,260
2016-05-09T09:40:49.549Z,260
2016-05-09T09:41:49.535Z,265
2016-05-09T09:42:49.398Z,265
2016-05-09T09:43:49.587Z,270
2016-05-09T09:44:49.419Z,270
2016-05-09T09:45:49.249Z,270
2016-05-09T09:46:49.423Z,270
2016-05-09T09:47:49.427Z,270
2016-05-09T09:48:49.570Z,270
2016-05-09T09:49:49.448Z,270
2016-05-09T09:50:49.606Z,270
2016-05-09T09:51:49.609Z,265
2016-05-09T09:52:49.456Z,265
2016-05-09T09:53:49.615Z,265
2016-05-09T09:54:49.462Z,265
2016-05-09T09:55:49.620Z,265
2016-05-09T09:56:49.467Z,265
2016-05-09T09:57:49.641Z,265
2016-05-09T09:58:50.550Z,260
2016-05-09T09:59:49.490Z,260
2016-05-09T10:00:49.493Z,260
2016-05-09T10:01:49.668Z,260
2016-05-09T10:02:49.545Z,260
2016-05-09T10:03:49.689Z,260
2016-05-09T10:04:49.676Z,260
2016-05-09T10:05:49.366Z,260
2016-05-09T10:06:49.540Z,260
2016-05-09T10:07:49.699Z,260
2016-05-09T10:08:49.718Z,260
2016-05-09T10:09:49.235Z,265
2016-05-09T10:10:49.566Z,265
2016-05-09T10:11:49.413Z,270
2016-05-09T10:12:49.572Z,270
2016-05-09T10:13:50.294Z,270
2016-05-09T10:14:49.593Z,270
2016-05-09T10:15:49.752Z,270
2016-05-09T10:16:49.771Z,265
2016-05-09T10:17:49.632Z,270
2016-05-09T10:18:49.760Z,270
2016-05-09T10:19:49.763Z,270
2016-05-09T10:20:49.625Z,270
2016-05-09T10:21:49.784Z,270
2016-05-09T10:22:49.787Z,270
2016-05-09T10:23:49.633Z,270
2016-05-09T10:24:49.636Z,270
2016-05-09T10:25:49.826Z,270
2016-05-09T10:26:49.797Z,270
2016-05-09T10:27:49.800Z,270
2016-05-09T10:28:49.725Z,270
2016-05-09T10:29:49.837Z,270
2016-05-09T10:30:49.667Z,270
2016-05-09T10:31:49.842Z,270
2016-05-09T10:32:49.688Z,265
2016-05-09T10:33:49.536Z,265
2016-05-09T10:34:49.866Z,265
2016-05-09T10:35:49.697Z,265
2016-05-09T10:36:49.855Z,265
2016-05-09T10:37:49.718Z,265
2016-05-09T10:38:49.720Z,270
2016-05-09T10:39:49.879Z,265
2016-05-09T10:40:49.897Z,270
2016-05-09T10:41:49.744Z,265
2016-05-09T10:42:49.747Z,270
2016-05-09T10:43:50.171Z,265
2016-05-09T10:44:49.768Z,265
2016-05-09T10:45:49.895Z,270
2016-05-09T10:46:49.913Z,270
2016-05-09T10:47:49.932Z,270
2016-05-09T10:48:49.919Z,270
2016-05-09T10:49:49.640Z,270
2016-05-09T10:50:49.799Z,270
2016-05-09T10:51:49.942Z,270
2016-05-09T10:52:49.961Z,270
2016-05-09T10:53:49.807Z,270
2016-05-09T10:54:49.810Z,270
2016-05-09T10:55:49.985Z,265
2016-05-09T10:56:49.987Z,265
2016-05-09T10:57:49.975Z,265
2016-05-09T10:58:49.836Z,265
2016-05-09T10:59:50.027Z,265
2016-05-09T11:00:49.998Z,265
2016-05-09T11:01:50.000Z,265
2016-05-09T11:02:50.019Z,265
2016-05-09T11:03:49.866Z,265
2016-05-09T11:04:50.024Z,265
2016-05-09T11:05:50.043Z,265
2016-05-09T11:06:50.030Z,265
2016-05-09T11:07:50.049Z,260
2016-05-09T11:08:50.051Z,265
2016-05-09T11:09:49.882Z,260
2016-05-09T11:10:50.056Z,260
2016-05-09T11:11:50.059Z,265
2016-05-09T11:12:49.750Z,265
2016-05-09T11:13:50.065Z,260
2016-05-09T11:14:50.239Z,260
2016-05-09T11:15:50.085Z,260
2016-05-09T11:16:50.103Z,260
2016-05-09T11:17:50.106Z,260
2016-05-09T11:18:50.124Z,260
2016-05-09T11:19:50.096Z,255
2016-05-09T11:20:50.114Z,255
2016-05-09T11:21:50.117Z,255
2016-05-09T11:22:50.120Z,250
2016-05-09T11:23:50.123Z,245
2016-05-09T11:24:49.970Z,245
2016-05-09T11:25:49.987Z,240
2016-05-09T11:26:50.146Z,235
2016-05-09T11:27:49.993Z,235
2016-05-09T11:28:50.167Z,230
2016-05-09T11:29:50.732Z,225
2016-05-09T11:30:50.157Z,225
2016-05-09T11:31:50.472Z,220
2016-05-09T11:32:50.162Z,220
2016-05-09T11:33:50.227Z,220
2016-05-09T11:34:50.199Z,220
2016-05-09T11:35:50.186Z,220
2016-05-09T11:36:50.236Z,220
2016-05-09T11:37:50.208Z,220
2016-05-09T11:38:50.210Z,225
2016-05-09T11:39:50.213Z,230
2016-05-09T11:40:50.059Z,230
2016-05-09T11:41:50.218Z,230
2016-05-09T11:42:50.080Z,230
2016-05-09T11:43:50.083Z,225
2016-05-09T11:44:50.554Z,225
2016-05-09T11:45:50.260Z,220
2016-05-09T11:46:50.246Z,220
2016-05-09T11:47:50.250Z,225
2016-05-09T11:48:50.268Z,230
2016-05-09T11:49:50.114Z,230
2016-05-09T11:50:50.257Z,235
2016-05-09T11:51:50.135Z,235
2016-05-09T11:52:50.279Z,240
2016-05-09T11:53:50.298Z,245
2016-05-09T11:54:50.284Z,245
2016-05-09T11:55:50.302Z,250
2016-05-09T11:56:50.305Z,255
2016-05-09T11:57:50.324Z,255
2016-05-09T11:58:50.326Z,255
2016-05-09T11:59:50.078Z,250
2016-05-09T12:00:50.331Z,245
2016-05-09T12:01:50.178Z,235
2016-05-09T12:02:50.337Z,225
2016-05-09T12:03:50.356Z,210
2016-05-09T12:04:50.342Z,200
2016-05-09T12:05:50.344Z,185
2016-05-09T12:06:50.363Z,175
2016-05-09T12:07:50.367Z,175
2016-05-09T12:08:50.431Z,165
2016-05-09T12:09:50.246Z,160
2016-05-09T12:10:50.389Z,155
2016-05-09T12:11:50.376Z,155
2016-05-09T12:12:50.395Z,160
2016-05-09T12:13:50.085Z,160
2016-05-09T12:14:50.775Z,160
2016-05-09T12:15:50.418Z,160
2016-05-09T12:16:50.265Z,160
2016-05-09T12:17:50.408Z,165
2016-05-09T12:18:50.427Z,170
2016-05-09T12:19:50.429Z,180
2016-05-09T12:20:50.432Z,180
2016-05-09T12:21:50.279Z,180
2016-05-09T12:22:50.469Z,175
2016-05-09T12:23:50.299Z,170
2016-05-09T12:24:50.458Z,165
2016-05-09T12:25:50.492Z,165
2016-05-09T12:26:50.464Z,165
2016-05-09T12:27:50.467Z,160
2016-05-09T12:28:50.485Z,155
2016-05-09T12:29:50.925Z,150
2016-05-09T12:30:50.334Z,150
2016-05-09T12:31:50.493Z,150
2016-05-09T12:32:50.215Z,150
2016-05-09T12:33:50.514Z,150
2016-05-09T12:34:50.376Z,150
2016-05-09T12:35:50.363Z,150
2016-05-09T12:36:50.538Z,150
2016-05-09T12:37:50.525Z,145
2016-05-09T12:38:50.527Z,145
2016-05-09T12:39:50.546Z,145
2016-05-09T12:40:50.549Z,140
2016-05-09T12:41:50.380Z,145
2016-05-09T12:42:50.538Z,145
2016-05-09T12:43:50.556Z,150
2016-05-09T12:44:50.669Z,155
2016-05-09T12:45:50.594Z,155
2016-05-09T12:46:50.580Z,150
2016-05-09T12:47:50.568Z,155
2016-05-09T12:48:59.163Z,155
2016-05-09T12:49:50.589Z,160
2016-05-09T12:50:50.591Z,165
2016-05-09T12:51:50.610Z,170
2016-05-09T12:52:50.596Z,175
2016-05-09T12:53:50.645Z,175
2016-05-09T12:54:50.633Z,175
2016-05-09T12:55:50.652Z,180
2016-05-09T12:56:50.154Z,185
2016-05-09T12:57:50.626Z,190
2016-05-09T12:58:50.643Z,195
2016-05-09T12:59:50.350Z,195
2016-05-09T13:00:50.634Z,200
2016-05-09T13:01:50.637Z,205
2016-05-09T13:02:50.654Z,210
2016-05-09T13:03:50.751Z,210
2016-05-09T13:04:50.675Z,210
2016-05-09T13:05:50.944Z,215
2016-05-09T13:06:51.728Z,215
2016-05-09T13:07:50.497Z,220
2016-05-09T13:08:50.686Z,215
2016-05-09T13:09:50.673Z,215
2016-05-09T13:10:50.675Z,215
2016-05-09T13:11:50.694Z,215
2016-05-09T13:12:50.385Z,215
2016-05-09T13:13:50.700Z,215
2016-05-09T13:14:50.812Z,215
2016-05-09T13:15:50.752Z,215
2016-05-09T13:16:50.708Z,215
2016-05-09T13:17:50.257Z,215
2016-05-09T13:18:50.730Z,215
2016-05-09T13:19:50.575Z,215
2016-05-09T13:20:50.578Z,215
2016-05-09T13:21:50.580Z,215
2016-05-09T13:22:50.755Z,215
2016-05-09T13:23:50.757Z,215
2016-05-09T13:24:50.761Z,215
2016-05-09T13:25:50.607Z,215
2016-05-09T13:26:50.766Z,220
2016-05-09T13:27:50.628Z,215
2016-05-09T13:28:50.771Z,215
2016-05-09T13:29:51.196Z,220
2016-05-09T13:30:50.777Z,215
2016-05-09T13:31:50.779Z,215
2016-05-09T13:32:50.814Z,210
2016-05-09T13:33:50.644Z,210
2016-05-09T13:34:50.788Z,205
2016-05-09T13:35:50.650Z,205
2016-05-09T13:36:50.512Z,205
2016-05-09T13:37:50.655Z,205
2016-05-09T13:38:50.845Z,200
2016-05-09T13:39:50.691Z,200
2016-05-09T13:40:50.678Z,210
2016-05-09T13:41:50.697Z,200
2016-05-09T13:42:50.856Z,200
2016-05-09T13:43:50.843Z,205
2016-05-09T13:44:50.939Z,200
2016-05-09T13:45:50.864Z,200
2016-05-09T13:46:50.710Z,205
2016-05-09T13:47:50.885Z,210
2016-05-09T13:48:50.871Z,210
2016-05-09T13:49:50.718Z,210
2016-05-09T13:50:50.893Z,210
2016-05-09T13:51:50.724Z,200
2016-05-09T13:52:50.914Z,195
2016-05-09T13:53:50.916Z,195
2016-05-09T13:54:50.748Z,190
2016-05-09T13:55:50.751Z,185
2016-05-09T13:56:50.925Z,180
2016-05-09T13:57:50.912Z,175
2016-05-09T13:58:50.759Z,170
2016-05-09T13:59:50.792Z,165
2016-05-09T14:00:50.951Z,165
2016-05-09T14:01:50.938Z,165
2016-05-09T14:02:50.957Z,165
2016-05-09T14:03:50.850Z,165